sensor_id;sensor_type;location;lat;lon;timestamp;temperature;humidity
64937;SHT30;51452;47.698;19.050;2023-03-01T00:01:23;5.87;60.86
64937;SHT30;51452;47.698;19.050;2023-03-01T00:03:49;5.86;59.79
64937;SHT30;51452;47.698;19.050;2023-03-01T00:06:14;5.85;60.34
64937;SHT30;51452;47.698;19.050;2023-03-01T00:08:40;5.70;58.33
64937;SHT30;51452;47.698;19.050;2023-03-01T00:11:28;5.71;59.47
64937;SHT30;51452;47.698;19.050;2023-03-01T00:13:56;5.80;60.67
64937;SHT30;51452;47.698;19.050;2023-03-01T00:16:30;5.79;58.74
64937;SHT30;51452;47.698;19.050;2023-03-01T00:18:57;5.81;58.61
64937;SHT30;51452;47.698;19.050;2023-03-01T00:21:23;5.85;58.25
64937;SHT30;51452;47.698;19.050;2023-03-01T00:23:49;5.90;58.46
64937;SHT30;51452;47.698;19.050;2023-03-01T00:26:17;5.86;59.50
64937;SHT30;51452;47.698;19.050;2023-03-01T00:28:43;5.89;57.39
64937;SHT30;51452;47.698;19.050;2023-03-01T00:31:14;5.76;56.75
64937;SHT30;51452;47.698;19.050;2023-03-01T00:33:40;5.79;56.62
64937;SHT30;51452;47.698;19.050;2023-03-01T00:36:06;5.67;56.53
64937;SHT30;51452;47.698;19.050;2023-03-01T00:38:39;5.65;56.70
64937;SHT30;51452;47.698;19.050;2023-03-01T00:41:10;5.56;56.70
64937;SHT30;51452;47.698;19.050;2023-03-01T00:43:36;5.62;57.06
64937;SHT30;51452;47.698;19.050;2023-03-01T00:46:06;5.73;56.93
64937;SHT30;51452;47.698;19.050;2023-03-01T00:48:33;5.85;56.67
64937;SHT30;51452;47.698;19.050;2023-03-01T00:51:15;5.73;56.50
64937;SHT30;51452;47.698;19.050;2023-03-01T00:53:41;5.76;56.64
64937;SHT30;51452;47.698;19.050;2023-03-01T00:56:09;5.80;56.66
64937;SHT30;51452;47.698;19.050;2023-03-01T00:58:35;5.79;56.29
64937;SHT30;51452;47.698;19.050;2023-03-01T01:01:00;5.71;56.74
64937;SHT30;51452;47.698;19.050;2023-03-01T01:03:26;5.85;56.35
64937;SHT30;51452;47.698;19.050;2023-03-01T01:05:52;5.71;56.46
64937;SHT30;51452;47.698;19.050;2023-03-01T01:08:19;5.80;56.42
64937;SHT30;51452;47.698;19.050;2023-03-01T01:10:46;5.79;56.41
64937;SHT30;51452;47.698;19.050;2023-03-01T01:13:12;5.79;56.25
64937;SHT30;51452;47.698;19.050;2023-03-01T01:15:38;5.79;56.20
64937;SHT30;51452;47.698;19.050;2023-03-01T01:18:04;5.83;56.53
64937;SHT30;51452;47.698;19.050;2023-03-01T01:20:30;5.80;56.50
64937;SHT30;51452;47.698;19.050;2023-03-01T01:22:55;5.76;56.82
64937;SHT30;51452;47.698;19.050;2023-03-01T01:25:21;5.74;56.66
64937;SHT30;51452;47.698;19.050;2023-03-01T01:27:46;5.73;56.68
64937;SHT30;51452;47.698;19.050;2023-03-01T01:30:12;5.76;56.41
64937;SHT30;51452;47.698;19.050;2023-03-01T01:32:38;5.69;57.11
64937;SHT30;51452;47.698;19.050;2023-03-01T01:35:04;5.59;58.05
64937;SHT30;51452;47.698;19.050;2023-03-01T01:37:30;5.66;58.29
64937;SHT30;51452;47.698;19.050;2023-03-01T01:39:58;5.69;58.61
64937;SHT30;51452;47.698;19.050;2023-03-01T01:42:25;5.67;58.42
64937;SHT30;51452;47.698;19.050;2023-03-01T01:45:30;5.62;58.85
64937;SHT30;51452;47.698;19.050;2023-03-01T01:48:03;5.56;59.24
64937;SHT30;51452;47.698;19.050;2023-03-01T01:50:30;5.59;59.64
64937;SHT30;51452;47.698;19.050;2023-03-01T01:53:10;5.62;59.73
64937;SHT30;51452;47.698;19.050;2023-03-01T01:55:41;5.59;59.44
64937;SHT30;51452;47.698;19.050;2023-03-01T01:58:09;5.60;59.68
64937;SHT30;51452;47.698;19.050;2023-03-01T02:00:36;5.55;60.12
64937;SHT30;51452;47.698;19.050;2023-03-01T02:03:14;5.49;60.58
64937;SHT30;51452;47.698;19.050;2023-03-01T02:05:51;5.42;60.97
64937;SHT30;51452;47.698;19.050;2023-03-01T02:08:20;5.46;60.95
64937;SHT30;51452;47.698;19.050;2023-03-01T02:10:46;5.48;61.09
64937;SHT30;51452;47.698;19.050;2023-03-01T02:13:13;5.45;61.64
64937;SHT30;51452;47.698;19.050;2023-03-01T02:15:40;5.49;61.53
64937;SHT30;51452;47.698;19.050;2023-03-01T02:18:07;5.43;61.30
64937;SHT30;51452;47.698;19.050;2023-03-01T02:23:30;5.40;61.17
64937;SHT30;51452;47.698;19.050;2023-03-01T02:28:37;5.46;62.29
64937;SHT30;51452;47.698;19.050;2023-03-01T02:31:06;5.50;61.87
64937;SHT30;51452;47.698;19.050;2023-03-01T02:33:51;5.55;61.95
64937;SHT30;51452;47.698;19.050;2023-03-01T02:36:23;5.45;61.53
64937;SHT30;51452;47.698;19.050;2023-03-01T02:38:51;5.53;62.16
64937;SHT30;51452;47.698;19.050;2023-03-01T02:41:19;5.56;62.22
64937;SHT30;51452;47.698;19.050;2023-03-01T02:43:45;5.62;62.46
64937;SHT30;51452;47.698;19.050;2023-03-01T02:46:20;5.58;62.25
64937;SHT30;51452;47.698;19.050;2023-03-01T02:48:53;5.62;61.80
64937;SHT30;51452;47.698;19.050;2023-03-01T02:56:34;5.59;61.59
64937;SHT30;51452;47.698;19.050;2023-03-01T02:59:00;5.63;61.72
64937;SHT30;51452;47.698;19.050;2023-03-01T03:01:26;5.67;61.90
64937;SHT30;51452;47.698;19.050;2023-03-01T03:04:05;5.66;61.53
64937;SHT30;51452;47.698;19.050;2023-03-01T03:06:31;5.59;61.33
64937;SHT30;51452;47.698;19.050;2023-03-01T03:08:57;5.50;61.46
64937;SHT30;51452;47.698;19.050;2023-03-01T03:11:23;5.50;61.41
64937;SHT30;51452;47.698;19.050;2023-03-01T03:13:48;5.38;61.70
64937;SHT30;51452;47.698;19.050;2023-03-01T03:16:14;5.46;61.62
64937;SHT30;51452;47.698;19.050;2023-03-01T03:18:40;5.40;61.60
64937;SHT30;51452;47.698;19.050;2023-03-01T03:21:10;5.46;61.30
64937;SHT30;51452;47.698;19.050;2023-03-01T03:23:36;5.55;61.77
64937;SHT30;51452;47.698;19.050;2023-03-01T03:26:02;5.56;61.83
64937;SHT30;51452;47.698;19.050;2023-03-01T03:28:30;5.50;61.82
64937;SHT30;51452;47.698;19.050;2023-03-01T03:30:56;5.56;61.69
64937;SHT30;51452;47.698;19.050;2023-03-01T03:33:21;5.60;62.50
64937;SHT30;51452;47.698;19.050;2023-03-01T03:35:48;5.58;62.17
64937;SHT30;51452;47.698;19.050;2023-03-01T03:38:15;5.59;62.32
64937;SHT30;51452;47.698;19.050;2023-03-01T03:40:47;5.58;63.00
64937;SHT30;51452;47.698;19.050;2023-03-01T03:43:19;5.59;63.05
64937;SHT30;51452;47.698;19.050;2023-03-01T03:45:46;5.52;63.46
64937;SHT30;51452;47.698;19.050;2023-03-01T03:48:12;5.50;63.45
64937;SHT30;51452;47.698;19.050;2023-03-01T03:50:38;5.53;64.03
64937;SHT30;51452;47.698;19.050;2023-03-01T03:53:10;5.50;63.54
64937;SHT30;51452;47.698;19.050;2023-03-01T03:55:36;5.50;62.73
64937;SHT30;51452;47.698;19.050;2023-03-01T03:58:05;5.43;62.27
64937;SHT30;51452;47.698;19.050;2023-03-01T04:00:38;5.46;63.05
64937;SHT30;51452;47.698;19.050;2023-03-01T04:03:04;5.50;62.35
64937;SHT30;51452;47.698;19.050;2023-03-01T04:05:30;5.50;62.02
64937;SHT30;51452;47.698;19.050;2023-03-01T04:07:56;5.50;62.42
64937;SHT30;51452;47.698;19.050;2023-03-01T04:10:31;5.53;62.40
64937;SHT30;51452;47.698;19.050;2023-03-01T04:12:57;5.52;63.40
64937;SHT30;51452;47.698;19.050;2023-03-01T04:15:24;5.53;63.50
64937;SHT30;51452;47.698;19.050;2023-03-01T04:17:51;5.58;63.60
64937;SHT30;51452;47.698;19.050;2023-03-01T04:20:22;5.50;63.12
64937;SHT30;51452;47.698;19.050;2023-03-01T04:22:59;5.59;63.41
64937;SHT30;51452;47.698;19.050;2023-03-01T04:25:25;5.58;64.52
64937;SHT30;51452;47.698;19.050;2023-03-01T04:27:51;5.60;64.41
64937;SHT30;51452;47.698;19.050;2023-03-01T04:30:16;5.65;64.06
64937;SHT30;51452;47.698;19.050;2023-03-01T04:32:42;5.62;63.53
64937;SHT30;51452;47.698;19.050;2023-03-01T04:35:08;5.58;62.59
64937;SHT30;51452;47.698;19.050;2023-03-01T04:37:33;5.59;63.09
64937;SHT30;51452;47.698;19.050;2023-03-01T04:40:00;5.60;64.01
64937;SHT30;51452;47.698;19.050;2023-03-01T04:42:26;5.58;63.75
64937;SHT30;51452;47.698;19.050;2023-03-01T04:44:52;5.59;63.78
64937;SHT30;51452;47.698;19.050;2023-03-01T04:47:17;5.60;63.85
64937;SHT30;51452;47.698;19.050;2023-03-01T04:49:42;5.60;63.65
64937;SHT30;51452;47.698;19.050;2023-03-01T04:52:08;5.58;62.88
64937;SHT30;51452;47.698;19.050;2023-03-01T04:54:35;5.55;62.92
64937;SHT30;51452;47.698;19.050;2023-03-01T04:57:02;5.55;63.85
64937;SHT30;51452;47.698;19.050;2023-03-01T04:59:28;5.53;63.31
64937;SHT30;51452;47.698;19.050;2023-03-01T05:01:55;5.49;63.51
64937;SHT30;51452;47.698;19.050;2023-03-01T05:04:25;5.48;63.86
64937;SHT30;51452;47.698;19.050;2023-03-01T05:06:50;5.42;63.48
64937;SHT30;51452;47.698;19.050;2023-03-01T05:09:16;5.40;63.42
64937;SHT30;51452;47.698;19.050;2023-03-01T05:11:41;5.31;63.72
64937;SHT30;51452;47.698;19.050;2023-03-01T05:14:08;5.38;63.56
64937;SHT30;51452;47.698;19.050;2023-03-01T05:16:35;5.39;64.08
64937;SHT30;51452;47.698;19.050;2023-03-01T05:19:01;5.45;63.61
64937;SHT30;51452;47.698;19.050;2023-03-01T05:21:37;5.40;63.47
64937;SHT30;51452;47.698;19.050;2023-03-01T05:24:23;5.39;63.45
64937;SHT30;51452;47.698;19.050;2023-03-01T05:26:49;5.45;63.06
64937;SHT30;51452;47.698;19.050;2023-03-01T05:29:14;5.31;63.15
64937;SHT30;51452;47.698;19.050;2023-03-01T05:31:39;5.32;63.41
64937;SHT30;51452;47.698;19.050;2023-03-01T05:34:05;5.35;63.12
64937;SHT30;51452;47.698;19.050;2023-03-01T05:36:31;5.45;64.45
64937;SHT30;51452;47.698;19.050;2023-03-01T05:38:57;5.46;64.10
64937;SHT30;51452;47.698;19.050;2023-03-01T05:41:22;5.52;62.70
64937;SHT30;51452;47.698;19.050;2023-03-01T05:43:47;5.60;61.90
64937;SHT30;51452;47.698;19.050;2023-03-01T05:46:13;5.63;61.61
64937;SHT30;51452;47.698;19.050;2023-03-01T05:48:40;5.59;60.35
64937;SHT30;51452;47.698;19.050;2023-03-01T05:51:05;5.62;60.81
64937;SHT30;51452;47.698;19.050;2023-03-01T05:53:31;5.67;61.71
64937;SHT30;51452;47.698;19.050;2023-03-01T05:55:56;5.70;61.42
64937;SHT30;51452;47.698;19.050;2023-03-01T05:58:22;5.69;61.12
64937;SHT30;51452;47.698;19.050;2023-03-01T06:00:48;5.69;61.51
64937;SHT30;51452;47.698;19.050;2023-03-01T06:03:15;5.73;62.25
64937;SHT30;51452;47.698;19.050;2023-03-01T06:05:42;5.83;62.11
64937;SHT30;51452;47.698;19.050;2023-03-01T06:08:11;5.81;62.63
64937;SHT30;51452;47.698;19.050;2023-03-01T06:10:37;5.79;60.89
64937;SHT30;51452;47.698;19.050;2023-03-01T06:13:02;5.73;60.26
64937;SHT30;51452;47.698;19.050;2023-03-01T06:15:28;5.79;60.71
64937;SHT30;51452;47.698;19.050;2023-03-01T06:17:54;5.83;61.06
64937;SHT30;51452;47.698;19.050;2023-03-01T06:20:24;5.91;61.30
64937;SHT30;51452;47.698;19.050;2023-03-01T06:22:49;5.97;61.54
64937;SHT30;51452;47.698;19.050;2023-03-01T06:25:19;5.93;62.02
64937;SHT30;51452;47.698;19.050;2023-03-01T06:27:45;5.93;62.62
64937;SHT30;51452;47.698;19.050;2023-03-01T06:30:13;5.99;62.73
64937;SHT30;51452;47.698;19.050;2023-03-01T06:32:39;5.99;62.82
64937;SHT30;51452;47.698;19.050;2023-03-01T06:35:07;5.97;62.99
64937;SHT30;51452;47.698;19.050;2023-03-01T06:37:33;6.00;63.21
64937;SHT30;51452;47.698;19.050;2023-03-01T06:39:58;5.97;62.89
64937;SHT30;51452;47.698;19.050;2023-03-01T06:42:24;5.99;63.04
64937;SHT30;51452;47.698;19.050;2023-03-01T06:44:49;6.01;63.19
64937;SHT30;51452;47.698;19.050;2023-03-01T06:47:15;6.03;63.31
64937;SHT30;51452;47.698;19.050;2023-03-01T06:49:41;6.10;63.07
64937;SHT30;51452;47.698;19.050;2023-03-01T06:52:06;6.17;62.91
64937;SHT30;51452;47.698;19.050;2023-03-01T06:54:32;6.14;63.13
64937;SHT30;51452;47.698;19.050;2023-03-01T06:56:57;6.14;61.71
64937;SHT30;51452;47.698;19.050;2023-03-01T06:59:22;6.20;60.55
64937;SHT30;51452;47.698;19.050;2023-03-01T07:01:48;6.21;60.07
64937;SHT30;51452;47.698;19.050;2023-03-01T07:04:13;6.27;59.59
64937;SHT30;51452;47.698;19.050;2023-03-01T07:06:39;6.35;59.96
64937;SHT30;51452;47.698;19.050;2023-03-01T07:09:04;6.32;58.50
64937;SHT30;51452;47.698;19.050;2023-03-01T07:11:30;6.38;59.03
64937;SHT30;51452;47.698;19.050;2023-03-01T07:13:55;6.38;58.27
64937;SHT30;51452;47.698;19.050;2023-03-01T07:16:21;6.30;57.88
64937;SHT30;51452;47.698;19.050;2023-03-01T07:18:47;6.34;58.69
64937;SHT30;51452;47.698;19.050;2023-03-01T07:21:14;6.37;56.16
64937;SHT30;51452;47.698;19.050;2023-03-01T07:23:40;6.37;56.83
64937;SHT30;51452;47.698;19.050;2023-03-01T07:26:05;6.41;57.27
64937;SHT30;51452;47.698;19.050;2023-03-01T07:28:31;6.48;57.46
64937;SHT30;51452;47.698;19.050;2023-03-01T07:31:02;6.65;58.08
64937;SHT30;51452;47.698;19.050;2023-03-01T07:33:27;6.72;57.90
64937;SHT30;51452;47.698;19.050;2023-03-01T07:35:57;6.67;56.94
64937;SHT30;51452;47.698;19.050;2023-03-01T07:38:23;6.76;56.70
64937;SHT30;51452;47.698;19.050;2023-03-01T07:40:48;6.82;57.30
64937;SHT30;51452;47.698;19.050;2023-03-01T07:43:14;6.93;57.03
64937;SHT30;51452;47.698;19.050;2023-03-01T07:45:39;6.97;57.01
64937;SHT30;51452;47.698;19.050;2023-03-01T07:48:04;7.06;57.51
64937;SHT30;51452;47.698;19.050;2023-03-01T07:50:30;7.06;57.20
64937;SHT30;51452;47.698;19.050;2023-03-01T07:52:55;7.09;56.54
64937;SHT30;51452;47.698;19.050;2023-03-01T07:55:21;7.10;56.17
64937;SHT30;51452;47.698;19.050;2023-03-01T07:57:46;7.07;56.74
64937;SHT30;51452;47.698;19.050;2023-03-01T08:00:12;7.10;57.89
64937;SHT30;51452;47.698;19.050;2023-03-01T08:02:37;7.17;57.37
64937;SHT30;51452;47.698;19.050;2023-03-01T08:05:03;7.24;57.19
64937;SHT30;51452;47.698;19.050;2023-03-01T08:07:29;7.37;56.11
64937;SHT30;51452;47.698;19.050;2023-03-01T08:09:54;7.41;54.07
64937;SHT30;51452;47.698;19.050;2023-03-01T08:12:20;7.48;54.08
64937;SHT30;51452;47.698;19.050;2023-03-01T08:14:45;7.48;52.91
64937;SHT30;51452;47.698;19.050;2023-03-01T08:17:13;7.44;52.52
64937;SHT30;51452;47.698;19.050;2023-03-01T08:19:38;7.51;52.52
64937;SHT30;51452;47.698;19.050;2023-03-01T08:22:04;7.60;52.55
64937;SHT30;51452;47.698;19.050;2023-03-01T08:24:29;7.71;52.36
64937;SHT30;51452;47.698;19.050;2023-03-01T08:26:55;7.79;51.20
64937;SHT30;51452;47.698;19.050;2023-03-01T08:29:21;7.85;52.00
64937;SHT30;51452;47.698;19.050;2023-03-01T08:31:47;7.96;52.32
64937;SHT30;51452;47.698;19.050;2023-03-01T08:34:14;8.01;52.13
64937;SHT30;51452;47.698;19.050;2023-03-01T08:36:42;7.79;50.87
64937;SHT30;51452;47.698;19.050;2023-03-01T08:39:11;7.68;52.05
64937;SHT30;51452;47.698;19.050;2023-03-01T08:41:37;7.77;51.75
64937;SHT30;51452;47.698;19.050;2023-03-01T08:44:03;7.86;52.02
64937;SHT30;51452;47.698;19.050;2023-03-01T08:46:34;7.96;51.69
64937;SHT30;51452;47.698;19.050;2023-03-01T08:48:59;7.95;51.58
64937;SHT30;51452;47.698;19.050;2023-03-01T08:51:25;8.09;51.57
64937;SHT30;51452;47.698;19.050;2023-03-01T08:53:51;8.16;51.52
64937;SHT30;51452;47.698;19.050;2023-03-01T08:56:17;8.21;52.04
64937;SHT30;51452;47.698;19.050;2023-03-01T08:58:48;8.19;51.03
64937;SHT30;51452;47.698;19.050;2023-03-01T09:01:16;8.25;50.98
64937;SHT30;51452;47.698;19.050;2023-03-01T09:03:42;8.09;53.37
64937;SHT30;51452;47.698;19.050;2023-03-01T09:06:09;8.06;51.45
64937;SHT30;51452;47.698;19.050;2023-03-01T09:08:38;8.01;52.36
64937;SHT30;51452;47.698;19.050;2023-03-01T09:11:06;7.93;53.06
64937;SHT30;51452;47.698;19.050;2023-03-01T09:13:32;8.02;54.04
64937;SHT30;51452;47.698;19.050;2023-03-01T09:16:00;8.05;54.57
64937;SHT30;51452;47.698;19.050;2023-03-01T09:18:26;8.05;54.33
64937;SHT30;51452;47.698;19.050;2023-03-01T09:20:51;8.03;53.57
64937;SHT30;51452;47.698;19.050;2023-03-01T09:23:20;8.09;53.92
64937;SHT30;51452;47.698;19.050;2023-03-01T09:25:46;8.12;55.10
64937;SHT30;51452;47.698;19.050;2023-03-01T09:28:11;8.06;54.85
64937;SHT30;51452;47.698;19.050;2023-03-01T09:30:37;8.16;53.92
64937;SHT30;51452;47.698;19.050;2023-03-01T09:33:02;8.19;54.54
64937;SHT30;51452;47.698;19.050;2023-03-01T09:35:28;8.16;54.08
64937;SHT30;51452;47.698;19.050;2023-03-01T09:37:53;8.22;54.98
64937;SHT30;51452;47.698;19.050;2023-03-01T09:40:25;8.26;55.04
64937;SHT30;51452;47.698;19.050;2023-03-01T09:46:08;8.26;54.36
64937;SHT30;51452;47.698;19.050;2023-03-01T09:48:52;8.25;55.26
64937;SHT30;51452;47.698;19.050;2023-03-01T09:51:29;8.28;54.48
64937;SHT30;51452;47.698;19.050;2023-03-01T09:53:55;8.40;54.51
64937;SHT30;51452;47.698;19.050;2023-03-01T10:04:10;8.50;54.84
64937;SHT30;51452;47.698;19.050;2023-03-01T10:06:40;8.56;54.32
64937;SHT30;51452;47.698;19.050;2023-03-01T10:09:14;8.57;54.45
64937;SHT30;51452;47.698;19.050;2023-03-01T10:11:48;8.56;54.37
64937;SHT30;51452;47.698;19.050;2023-03-01T10:17:06;8.56;54.38
64937;SHT30;51452;47.698;19.050;2023-03-01T10:19:40;8.63;54.27
64937;SHT30;51452;47.698;19.050;2023-03-01T10:22:24;8.63;54.42
64937;SHT30;51452;47.698;19.050;2023-03-01T10:24:53;8.57;54.49
64937;SHT30;51452;47.698;19.050;2023-03-01T10:27:29;8.64;55.61
64937;SHT30;51452;47.698;19.050;2023-03-01T10:30:11;8.75;55.23
64937;SHT30;51452;47.698;19.050;2023-03-01T10:32:39;8.70;55.05
64937;SHT30;51452;47.698;19.050;2023-03-01T10:35:22;8.71;54.54
64937;SHT30;51452;47.698;19.050;2023-03-01T10:38:07;8.57;54.92
64937;SHT30;51452;47.698;19.050;2023-03-01T10:40:35;8.65;55.39
64937;SHT30;51452;47.698;19.050;2023-03-01T10:43:04;8.67;55.18
64937;SHT30;51452;47.698;19.050;2023-03-01T10:50:47;8.95;54.62
64937;SHT30;51452;47.698;19.050;2023-03-01T10:53:43;9.01;54.58
64937;SHT30;51452;47.698;19.050;2023-03-01T10:56:14;9.00;54.80
64937;SHT30;51452;47.698;19.050;2023-03-01T10:59:01;8.85;54.12
64937;SHT30;51452;47.698;19.050;2023-03-01T11:01:37;9.01;54.57
64937;SHT30;51452;47.698;19.050;2023-03-01T11:06:30;8.85;54.89
64937;SHT30;51452;47.698;19.050;2023-03-01T11:08:56;9.04;55.27
64937;SHT30;51452;47.698;19.050;2023-03-01T11:11:31;9.11;53.86
64937;SHT30;51452;47.698;19.050;2023-03-01T11:13:57;9.16;54.86
64937;SHT30;51452;47.698;19.050;2023-03-01T11:19:14;9.18;54.45
64937;SHT30;51452;47.698;19.050;2023-03-01T11:22:02;9.14;53.60
64937;SHT30;51452;47.698;19.050;2023-03-01T11:24:49;9.22;55.20
64937;SHT30;51452;47.698;19.050;2023-03-01T11:27:22;9.22;54.53
64937;SHT30;51452;47.698;19.050;2023-03-01T11:33:04;9.35;54.55
64937;SHT30;51452;47.698;19.050;2023-03-01T11:35:35;9.45;54.80
64937;SHT30;51452;47.698;19.050;2023-03-01T11:40:39;9.57;54.33
64937;SHT30;51452;47.698;19.050;2023-03-01T11:59:29;9.76;53.16
64937;SHT30;51452;47.698;19.050;2023-03-01T12:27:06;10.99;51.35
64937;SHT30;51452;47.698;19.050;2023-03-01T12:29:38;11.09;51.08
64937;SHT30;51452;47.698;19.050;2023-03-01T12:32:38;11.13;50.70
64937;SHT30;51452;47.698;19.050;2023-03-01T12:48:42;11.13;49.91
64937;SHT30;51452;47.698;19.050;2023-03-01T12:51:14;11.06;49.21
64937;SHT30;51452;47.698;19.050;2023-03-01T12:53:41;11.14;49.83
64937;SHT30;51452;47.698;19.050;2023-03-01T12:56:20;11.03;50.04
64937;SHT30;51452;47.698;19.050;2023-03-01T12:59:09;11.14;49.47
64937;SHT30;51452;47.698;19.050;2023-03-01T13:01:45;11.04;49.95
64937;SHT30;51452;47.698;19.050;2023-03-01T13:14:58;11.28;50.10
64937;SHT30;51452;47.698;19.050;2023-03-01T13:17:50;11.30;50.51
64937;SHT30;51452;47.698;19.050;2023-03-01T13:20:19;11.26;50.31
64937;SHT30;51452;47.698;19.050;2023-03-01T13:22:46;11.20;50.44
64937;SHT30;51452;47.698;19.050;2023-03-01T13:25:15;11.10;51.08
64937;SHT30;51452;47.698;19.050;2023-03-01T13:27:42;11.04;51.24
64937;SHT30;51452;47.698;19.050;2023-03-01T13:35:58;11.13;51.49
64937;SHT30;51452;47.698;19.050;2023-03-01T13:41:16;11.14;52.18
64937;SHT30;51452;47.698;19.050;2023-03-01T13:43:44;11.27;51.87
64937;SHT30;51452;47.698;19.050;2023-03-01T13:46:17;11.33;51.05
64937;SHT30;51452;47.698;19.050;2023-03-01T13:48:50;11.35;51.11
64937;SHT30;51452;47.698;19.050;2023-03-01T13:51:16;11.38;50.93
64937;SHT30;51452;47.698;19.050;2023-03-01T13:53:46;11.35;50.74
64937;SHT30;51452;47.698;19.050;2023-03-01T13:56:24;11.23;50.62
64937;SHT30;51452;47.698;19.050;2023-03-01T13:58:58;11.28;50.27
64937;SHT30;51452;47.698;19.050;2023-03-01T14:01:33;11.19;51.80
64937;SHT30;51452;47.698;19.050;2023-03-01T14:03:59;11.26;50.24
64937;SHT30;51452;47.698;19.050;2023-03-01T14:06:28;11.26;50.54
64937;SHT30;51452;47.698;19.050;2023-03-01T14:09:25;11.30;50.61
64937;SHT30;51452;47.698;19.050;2023-03-01T14:19:59;11.20;50.18
64937;SHT30;51452;47.698;19.050;2023-03-01T14:22:27;11.23;49.93
64937;SHT30;51452;47.698;19.050;2023-03-01T14:24:59;11.14;49.93
64937;SHT30;51452;47.698;19.050;2023-03-01T14:27:27;11.16;50.22
64937;SHT30;51452;47.698;19.050;2023-03-01T14:29:59;11.23;50.09
64937;SHT30;51452;47.698;19.050;2023-03-01T14:32:27;11.27;49.86
64937;SHT30;51452;47.698;19.050;2023-03-01T14:34:53;11.17;49.95
64937;SHT30;51452;47.698;19.050;2023-03-01T14:37:39;11.22;50.06
64937;SHT30;51452;47.698;19.050;2023-03-01T14:40:05;11.10;50.68
64937;SHT30;51452;47.698;19.050;2023-03-01T14:42:44;11.10;48.48
64937;SHT30;51452;47.698;19.050;2023-03-01T14:45:12;11.10;49.39
64937;SHT30;51452;47.698;19.050;2023-03-01T14:47:38;11.12;49.57
64937;SHT30;51452;47.698;19.050;2023-03-01T14:50:27;11.10;49.22
64937;SHT30;51452;47.698;19.050;2023-03-01T14:52:58;11.02;49.72
64937;SHT30;51452;47.698;19.050;2023-03-01T14:55:28;11.09;49.58
64937;SHT30;51452;47.698;19.050;2023-03-01T14:57:56;11.19;49.74
64937;SHT30;51452;47.698;19.050;2023-03-01T15:00:27;11.17;49.86
64937;SHT30;51452;47.698;19.050;2023-03-01T15:02:55;11.17;50.06
64937;SHT30;51452;47.698;19.050;2023-03-01T15:05:32;11.07;50.25
64937;SHT30;51452;47.698;19.050;2023-03-01T15:08:00;10.97;49.81
64937;SHT30;51452;47.698;19.050;2023-03-01T15:10:28;10.89;49.34
64937;SHT30;51452;47.698;19.050;2023-03-01T15:12:54;11.02;49.40
64937;SHT30;51452;47.698;19.050;2023-03-01T15:15:35;10.97;49.05
64937;SHT30;51452;47.698;19.050;2023-03-01T15:18:25;11.03;48.48
64937;SHT30;51452;47.698;19.050;2023-03-01T15:20:52;11.03;48.40
64937;SHT30;51452;47.698;19.050;2023-03-01T15:23:24;10.89;48.92
64937;SHT30;51452;47.698;19.050;2023-03-01T15:25:51;10.91;49.30
64937;SHT30;51452;47.698;19.050;2023-03-01T15:28:25;10.97;49.31
64937;SHT30;51452;47.698;19.050;2023-03-01T15:33:42;10.93;48.85
64937;SHT30;51452;47.698;19.050;2023-03-01T15:36:44;10.89;49.51
64937;SHT30;51452;47.698;19.050;2023-03-01T15:47:50;10.73;48.65
64937;SHT30;51452;47.698;19.050;2023-03-01T15:52:59;10.65;49.05
64937;SHT30;51452;47.698;19.050;2023-03-01T15:55:30;10.59;49.23
64937;SHT30;51452;47.698;19.050;2023-03-01T15:58:01;10.59;49.33
64937;SHT30;51452;47.698;19.050;2023-03-01T16:00:28;10.52;49.93
64937;SHT30;51452;47.698;19.050;2023-03-01T16:02:54;10.55;49.54
64937;SHT30;51452;47.698;19.050;2023-03-01T16:07:48;10.41;50.65
64937;SHT30;51452;47.698;19.050;2023-03-01T16:10:14;10.30;51.62
64937;SHT30;51452;47.698;19.050;2023-03-01T16:12:40;10.11;52.63
64937;SHT30;51452;47.698;19.050;2023-03-01T16:15:32;9.80;53.66
64937;SHT30;51452;47.698;19.050;2023-03-01T16:17:59;9.69;53.98
64937;SHT30;51452;47.698;19.050;2023-03-01T16:20:25;9.56;54.39
64937;SHT30;51452;47.698;19.050;2023-03-01T16:22:51;9.50;54.46
64937;SHT30;51452;47.698;19.050;2023-03-01T16:25:19;9.52;53.84
64937;SHT30;51452;47.698;19.050;2023-03-01T16:27:47;9.47;54.26
64937;SHT30;51452;47.698;19.050;2023-03-01T16:30:15;9.45;54.48
64937;SHT30;51452;47.698;19.050;2023-03-01T16:32:42;9.43;54.66
64937;SHT30;51452;47.698;19.050;2023-03-01T16:35:09;9.38;54.73
64937;SHT30;51452;47.698;19.050;2023-03-01T16:37:36;9.36;54.65
64937;SHT30;51452;47.698;19.050;2023-03-01T16:40:03;9.29;54.66
64937;SHT30;51452;47.698;19.050;2023-03-01T16:42:36;9.22;54.61
64937;SHT30;51452;47.698;19.050;2023-03-01T16:45:02;9.15;54.75
64937;SHT30;51452;47.698;19.050;2023-03-01T16:47:29;9.11;54.96
64937;SHT30;51452;47.698;19.050;2023-03-01T16:49:54;9.04;55.09
64937;SHT30;51452;47.698;19.050;2023-03-01T16:52:21;8.98;55.28
64937;SHT30;51452;47.698;19.050;2023-03-01T16:54:47;8.95;55.26
64937;SHT30;51452;47.698;19.050;2023-03-01T16:57:14;8.89;55.45
64937;SHT30;51452;47.698;19.050;2023-03-01T16:59:40;8.89;55.38
64937;SHT30;51452;47.698;19.050;2023-03-01T17:02:08;8.64;56.65
64937;SHT30;51452;47.698;19.050;2023-03-01T17:04:36;8.42;56.09
64937;SHT30;51452;47.698;19.050;2023-03-01T17:07:02;8.53;55.77
64937;SHT30;51452;47.698;19.050;2023-03-01T17:09:27;8.54;55.69
64937;SHT30;51452;47.698;19.050;2023-03-01T17:11:52;8.63;55.75
64937;SHT30;51452;47.698;19.050;2023-03-01T17:14:19;8.65;55.64
64937;SHT30;51452;47.698;19.050;2023-03-01T17:16:45;8.60;56.13
64937;SHT30;51452;47.698;19.050;2023-03-01T17:19:11;8.43;56.61
64937;SHT30;51452;47.698;19.050;2023-03-01T17:21:37;8.33;57.23
64937;SHT30;51452;47.698;19.050;2023-03-01T17:24:03;8.33;56.92
64937;SHT30;51452;47.698;19.050;2023-03-01T17:26:29;8.21;57.06
64937;SHT30;51452;47.698;19.050;2023-03-01T17:28:56;8.05;57.01
64937;SHT30;51452;47.698;19.050;2023-03-01T17:31:23;7.89;57.83
64937;SHT30;51452;47.698;19.050;2023-03-01T17:33:49;7.77;58.06
64937;SHT30;51452;47.698;19.050;2023-03-01T17:36:17;7.67;58.25
64937;SHT30;51452;47.698;19.050;2023-03-01T17:38:42;7.55;58.62
64937;SHT30;51452;47.698;19.050;2023-03-01T17:41:08;7.52;58.87
64937;SHT30;51452;47.698;19.050;2023-03-01T17:43:36;7.47;59.02
64937;SHT30;51452;47.698;19.050;2023-03-01T17:46:03;7.51;59.21
64937;SHT30;51452;47.698;19.050;2023-03-01T17:48:30;7.55;58.86
64937;SHT30;51452;47.698;19.050;2023-03-01T17:50:55;7.64;58.99
64937;SHT30;51452;47.698;19.050;2023-03-01T17:53:21;7.70;58.76
64937;SHT30;51452;47.698;19.050;2023-03-01T17:55:47;7.67;58.78
64937;SHT30;51452;47.698;19.050;2023-03-01T17:58:18;7.68;58.79